WetterOnline ( https://www.wetteronline.de )

Wetter aktuell Waldmünchen

Aktuelles Wetter: Waldmünchen (499m)

6-stündlich | Neueste Meldungen
Ortszeit Temperatur Wetter
Di, 22.10. 20:00 14.1° C wolkenlos
Di, 22.10. 14:00 16.3° C fast wolkenlos
Di, 22.10. 8:00 6.4° C Nebel
Di, 22.10. 2:00 8.3° C Nebel
Mo, 21.10. 20:00 11.7° C wolkig
Mo, 21.10. 14:00 16.9° C bedeckt
Mo, 21.10. 8:00 7.2° C fast wolkenlos
Mo, 21.10. 2:00 9.0° C bewölkt
Ortszeit Temperatur Wetter
Di, 22.10. 23:30 11.8° C wolkig
Di, 22.10. 23:20 11.8° C wolkig
Di, 22.10. 23:10 10.7° C wolkig
Di, 22.10. 23:00 12.2° C wolkig
Di, 22.10. 22:50 12.2° C wolkig
Di, 22.10. 22:40 12.2° C wolkig
Di, 22.10. 22:30 12.4° C wolkig
Di, 22.10. 22:00 13.4° C leicht bewölkt
Di, 22.10. 21:30 13.3° C wolkenlos
Di, 22.10. 21:00 11.9° C wolkenlos
Di, 22.10. 20:30 13.5° C wolkenlos
Di, 22.10. 20:00 14.1° C wolkenlos
Ortszeit Relative Feuchte Sichtweite
Di, 22.10. 20:00 85% 6 km
Di, 22.10. 14:00 78% 8 km
Di, 22.10. 8:00 100% 100 m
Di, 22.10. 2:00 100% 0.2 km
Mo, 21.10. 20:00 96% 14 km
Mo, 21.10. 14:00 67% 30 km
Mo, 21.10. 8:00 100% 5.0 km
Mo, 21.10. 2:00 99% 8 km
Ortszeit Relative Feuchte Sichtweite
Di, 22.10. 23:30 97% 4.4 km
Di, 22.10. 23:20 97% -
Di, 22.10. 23:10 97% -
Di, 22.10. 23:00 95% 4.1 km
Di, 22.10. 22:50 95% -
Di, 22.10. 22:40 93% -
Di, 22.10. 22:30 91% 4.1 km
Di, 22.10. 22:00 91% 5.0 km
Di, 22.10. 21:30 92% 5.0 km
Di, 22.10. 21:00 94% 4.1 km
Di, 22.10. 20:30 88% 5.0 km
Di, 22.10. 20:00 85% 6 km
Ortszeit Niederschlagsmenge Niederschlagsart
Di, 22.10. 20:00 0.1 l/m2 in 12 Std. -
Di, 22.10. 14:00 0.1 l/m2 in 6 Std. -
Di, 22.10. 8:00 0.0 l/m2 in 12 Std. -
Di, 22.10. 2:00 0.0 l/m2 in 6 Std. -
Mo, 21.10. 20:00 0.0 l/m2 in 12 Std. -
Mo, 21.10. 14:00 0.0 l/m2 in 6 Std. -
Mo, 21.10. 8:00 0.1 l/m2 in 12 Std. -
Mo, 21.10. 2:00 0.0 l/m2 in 6 Std. -
Ortszeit Niederschlagsmenge Niederschlagsart
Di, 22.10. 23:30 0.0 l/m2 in 1 Std. -
Di, 22.10. 23:20 keine Meldung -
Di, 22.10. 23:10 keine Meldung -
Di, 22.10. 23:00 0.0 l/m2 in 1 Std. -
Di, 22.10. 22:50 keine Meldung -
Di, 22.10. 22:40 keine Meldung -
Di, 22.10. 22:30 0.0 l/m2 in 1 Std. -
Di, 22.10. 22:00 0.0 l/m2 in 1 Std. -
Di, 22.10. 21:30 0.0 l/m2 in 1 Std. -
Di, 22.10. 21:00 0.0 l/m2 in 1 Std. -
Di, 22.10. 20:30 0.0 l/m2 in 1 Std. -
Di, 22.10. 20:00 0.0 l/m2 in 1 Std. -
Ortszeit Stärke Spitze Richtung
km/h Bft. km/h Grad Sektor
Di, 22.10. 20:00 18 3 29 30° NO
Di, 22.10. 14:00 19 3 26 70° O
Di, 22.10. 8:00 4 1 11 90° O
Di, 22.10. 2:00 4 1 11 120° SO
Mo, 21.10. 20:00 4 1 18 170° S
Mo, 21.10. 14:00 4 1 14 300° NW
Mo, 21.10. 8:00 4 1 14 40° NO
Mo, 21.10. 2:00 0 0 7 - -
Ortszeit Stärke Spitze Richtung
km/h Bft. km/h Grad Sektor
Di, 22.10. 23:30 6 1 11 50° NO
Di, 22.10. 23:20 6 1 - 50° NO
Di, 22.10. 23:10 4 1 - 50° NO
Di, 22.10. 23:00 7 2 25 60° NO
Di, 22.10. 22:50 7 2 - 60° NO
Di, 22.10. 22:40 7 2 - 60° NO
Di, 22.10. 22:30 13 3 24 50° NO
Di, 22.10. 22:00 11 2 22 50° NO
Di, 22.10. 21:30 14 3 22 40° NO
Di, 22.10. 21:00 7 2 25 90° O
Di, 22.10. 20:30 14 3 25 20° N
Di, 22.10. 20:00 18 3 25 30° NO
Ortszeit Untergrenze Bedeckung Gattung
total tief tief mittel hoch
Di, 22.10. 20:00 - 0/8 0/8 - - -
Di, 22.10. 14:00 9000 m 1/8 0/8 - - -
Di, 22.10. 8:00 <30 m 8/8 0/8 - - -
Di, 22.10. 2:00 <30 m 7/8 0/8 - - -
Mo, 21.10. 20:00 9000 m 8/8 0/8 - - -
Mo, 21.10. 14:00 3600 m 8/8 8/8 - - -
Mo, 21.10. 8:00 10500 m 1/8 0/8 - - -
Mo, 21.10. 2:00 6300 m 8/8 7/8 - - -
Ortszeit Bedeckungsgrad in Achtel und Wolkenuntergrenze
Di, 22.10. 23:30 2(270m) 7(10500m)
Di, 22.10. 23:20 2(270m) 7(10500m)
Di, 22.10. 23:10 4(270m) 7(10500m) 7(10500m)
Di, 22.10. 23:00 5(270m) 7(10500m) 7(10500m)
Di, 22.10. 22:50 5(270m) 7(10500m) 7(10500m)
Di, 22.10. 22:40 4(270m) 7(10500m)
Di, 22.10. 22:30 4(300m) 7(10500m) 7(10500m)
Di, 22.10. 22:00 1(330m) 4(7500m) 6(10500m)
Di, 22.10. 21:30 keine Wolken
Di, 22.10. 21:00 keine Wolken
Di, 22.10. 20:30 keine Wolken
Di, 22.10. 20:00 keine Wolken
Ortszeit Luftdruck NN (hPa) Tendenz (hPa in 3 Std.)
Di, 22.10. 20:00 1022 - 0,3
Di, 22.10. 14:00 1023 - 0,7
Di, 22.10. 8:00 1025 + 1,1
Di, 22.10. 2:00 1023 + 1,3
Mo, 21.10. 20:00 1021 + 0,7
Mo, 21.10. 14:00 1018 + 0,1
Mo, 21.10. 8:00 1017 + 2,1
Mo, 21.10. 2:00 1014 + 0,8
Ortszeit Luftdruck NN (hPa) Tendenz (hPa in 3 Std.)
Di, 22.10. 23:30 1023 0,0
Di, 22.10. 23:20 1023 keine Meldung
Di, 22.10. 23:10 1023 keine Meldung
Di, 22.10. 23:00 1023 - 0,2
Di, 22.10. 22:50 1023 keine Meldung
Di, 22.10. 22:40 1023 keine Meldung
Di, 22.10. 22:30 1023 - 0,2
Di, 22.10. 22:00 1023 0,0
Di, 22.10. 21:30 1023 0,0
Di, 22.10. 21:00 1023 + 0,2
Di, 22.10. 20:30 1023 - 0,1
Di, 22.10. 20:00 1022 - 0,3
Ortszeit Schneehöhe (cm)
Di, 22.10. 20:00 0
Di, 22.10. 14:00 0
Di, 22.10. 8:00 0
Di, 22.10. 2:00 0
Mo, 21.10. 20:00 0
Mo, 21.10. 14:00 0
Mo, 21.10. 8:00 -
Mo, 21.10. 2:00 -
Ortszeit Schneehöhe (cm)
Di, 22.10. 23:30 0
Di, 22.10. 23:20 0
Di, 22.10. 23:10 0
Di, 22.10. 23:00 0
Di, 22.10. 22:50 0
Di, 22.10. 22:40 0
Di, 22.10. 22:30 0
Di, 22.10. 22:00 0
Di, 22.10. 21:30 0
Di, 22.10. 21:00 0
Di, 22.10. 20:30 0
Di, 22.10. 20:00 0
Link zu dieser Seite / Seite empfehlen

Das Wetter in ...